Augusta, Indiana
Current Conditions -  °F | °C
As of 2:35 PM on Saturday 25 Oct 2014 (Local Time) from KHNB Reporting Station
Clear Clear  
Wind Chill: 24°   Ceiling: Unl
Heat Index: 24°   Visibility: 10mi
Dew Point: 16°   Wind: 8mph
Humidity: 61%   Direction: 330°NNW
Pressure: 29.97"   Gusts: NA
Location:  38.3488°N, 87.2217°W
Report Text: KHNB 251935Z AUTO 33007KT 10SM CLR 24/16 A2997 RMK AO1
Loading
Personal Weather Stations






























Interactive Weather Map
Tropical Storm Tracking
New forecast layout! Learn more

10-Day Weather Forecast

Advertisements
Track Severe Weather on mobile